sensor_id;sensor_type;location;lat;lon;timestamp;pressure;altitude;pressure_sealevel;temperature;humidity
21433;BME280;18592;49.708;10.900;2022-12-29T00:00:49;98201.53;;;10.15;56.32
21433;BME280;18592;49.708;10.900;2022-12-29T00:02:51;98187.63;;;10.17;56.49
21433;BME280;18592;49.708;10.900;2022-12-29T00:04:53;98191.19;;;10.17;56.54
21433;BME280;18592;49.708;10.900;2022-12-29T00:06:54;98187.41;;;10.18;56.54
21433;BME280;18592;49.708;10.900;2022-12-29T00:08:56;98192.28;;;10.16;56.65
21433;BME280;18592;49.708;10.900;2022-12-29T00:10:58;98178.66;;;10.16;56.60
21433;BME280;18592;49.708;10.900;2022-12-29T00:13:00;98187.13;;;10.20;56.40
21433;BME280;18592;49.708;10.900;2022-12-29T00:15:37;98192.63;;;10.25;56.46
21433;BME280;18592;49.708;10.900;2022-12-29T00:17:41;98180.38;;;10.28;56.73
21433;BME280;18592;49.708;10.900;2022-12-29T00:19:43;98182.59;;;10.31;56.44
21433;BME280;18592;49.708;10.900;2022-12-29T00:22:04;98186.41;;;10.30;56.39
21433;BME280;18592;49.708;10.900;2022-12-29T00:24:24;98179.06;;;10.30;56.73
21433;BME280;18592;49.708;10.900;2022-12-29T00:26:28;98180.69;;;10.31;56.70
21433;BME280;18592;49.708;10.900;2022-12-29T00:28:49;98174.19;;;10.32;56.42
21433;BME280;18592;49.708;10.900;2022-12-29T00:31:11;98173.09;;;10.33;56.56
21433;BME280;18592;49.708;10.900;2022-12-29T00:33:33;98166.56;;;10.34;56.70
21433;BME280;18592;49.708;10.900;2022-12-29T00:35:57;98173.66;;;10.35;56.37
21433;BME280;18592;49.708;10.900;2022-12-29T00:38:03;98164.69;;;10.35;56.54
21433;BME280;18592;49.708;10.900;2022-12-29T00:40:24;98164.41;;;10.36;56.64
21433;BME280;18592;49.708;10.900;2022-12-29T00:42:44;98158.69;;;10.38;56.55
21433;BME280;18592;49.708;10.900;2022-12-29T00:45:08;98159.50;;;10.38;56.48
21433;BME280;18592;49.708;10.900;2022-12-29T00:47:10;98160.91;;;10.41;56.87
21433;BME280;18592;49.708;10.900;2022-12-29T00:49:15;98155.22;;;10.42;56.78
21433;BME280;18592;49.708;10.900;2022-12-29T00:51:31;98151.94;;;10.45;56.51
21433;BME280;18592;49.708;10.900;2022-12-29T00:53:34;98155.50;;;10.46;56.88
21433;BME280;18592;49.708;10.900;2022-12-29T00:55:36;98143.25;;;10.48;56.52
21433;BME280;18592;49.708;10.900;2022-12-29T00:57:38;98150.34;;;10.49;56.86
21433;BME280;18592;49.708;10.900;2022-12-29T00:59:41;98149.00;;;10.52;56.48
21433;BME280;18592;49.708;10.900;2022-12-29T01:01:44;98156.09;;;10.53;56.70
21433;BME280;18592;49.708;10.900;2022-12-29T01:03:48;98160.19;;;10.55;56.86
21433;BME280;18592;49.708;10.900;2022-12-29T01:05:50;98147.16;;;10.57;56.82
21433;BME280;18592;49.708;10.900;2022-12-29T01:07:51;98135.97;;;10.59;56.51
21433;BME280;18592;49.708;10.900;2022-12-29T01:09:53;98134.63;;;10.61;56.50
21433;BME280;18592;49.708;10.900;2022-12-29T01:12:13;98141.75;;;10.62;56.61
21433;BME280;18592;49.708;10.900;2022-12-29T01:14:16;98133.28;;;10.64;56.58
21433;BME280;18592;49.708;10.900;2022-12-29T01:16:18;98142.28;;;10.64;56.84
21433;BME280;18592;49.708;10.900;2022-12-29T01:18:21;98131.66;;;10.68;56.58
21433;BME280;18592;49.708;10.900;2022-12-29T01:20:23;98132.50;;;10.68;56.79
21433;BME280;18592;49.708;10.900;2022-12-29T01:22:24;98133.88;;;10.71;56.67
21433;BME280;18592;49.708;10.900;2022-12-29T01:24:26;98130.91;;;10.72;56.53
21433;BME280;18592;49.708;10.900;2022-12-29T01:26:28;98119.47;;;10.75;56.60
21433;BME280;18592;49.708;10.900;2022-12-29T01:28:29;98120.84;;;10.78;56.69
21433;BME280;18592;49.708;10.900;2022-12-29T01:30:33;98105.84;;;10.80;56.72
21433;BME280;18592;49.708;10.900;2022-12-29T01:32:34;98116.53;;;10.82;56.64
21433;BME280;18592;49.708;10.900;2022-12-29T01:34:36;98108.88;;;10.84;56.39
21433;BME280;18592;49.708;10.900;2022-12-29T01:36:37;98109.72;;;10.84;56.54
21433;BME280;18592;49.708;10.900;2022-12-29T01:38:40;98103.16;;;10.85;56.55
21433;BME280;18592;49.708;10.900;2022-12-29T01:40:45;98107.53;;;10.87;56.40
21433;BME280;18592;49.708;10.900;2022-12-29T01:42:47;98095.28;;;10.89;56.61
21433;BME280;18592;49.708;10.900;2022-12-29T01:46:56;98111.69;;;10.94;56.45
21433;BME280;18592;49.708;10.900;2022-12-29T01:49:21;98105.94;;;10.96;56.54
21433;BME280;18592;49.708;10.900;2022-12-29T01:51:25;98105.44;;;10.99;56.35
21433;BME280;18592;49.708;10.900;2022-12-29T01:53:30;98104.34;;;11.00;56.67
21433;BME280;18592;49.708;10.900;2022-12-29T01:55:41;98108.69;;;11.01;56.55
21433;BME280;18592;49.708;10.900;2022-12-29T01:57:46;98114.47;;;11.04;56.57
21433;BME280;18592;49.708;10.900;2022-12-29T01:59:57;98101.66;;;11.05;56.57
21433;BME280;18592;49.708;10.900;2022-12-29T02:02:01;98111.75;;;11.09;56.56
21433;BME280;18592;49.708;10.900;2022-12-29T02:04:03;98118.03;;;11.10;56.36
21433;BME280;18592;49.708;10.900;2022-12-29T02:06:18;98108.75;;;11.11;56.34
21433;BME280;18592;49.708;10.900;2022-12-29T02:08:24;98113.97;;;11.12;56.51
21433;BME280;18592;49.708;10.900;2022-12-29T02:10:29;98121.34;;;11.17;56.37
21433;BME280;18592;49.708;10.900;2022-12-29T02:12:32;98115.59;;;11.18;56.39
21433;BME280;18592;49.708;10.900;2022-12-29T02:14:37;98111.81;;;11.19;56.05
21433;BME280;18592;49.708;10.900;2022-12-29T02:17:06;98105.00;;;11.22;56.57
21433;BME280;18592;49.708;10.900;2022-12-29T02:19:46;98109.63;;;11.21;56.40
21433;BME280;18592;49.708;10.900;2022-12-29T02:22:14;98104.16;;;11.21;56.54
21433;BME280;18592;49.708;10.900;2022-12-29T02:26:54;98102.81;;;11.24;56.42
21433;BME280;18592;49.708;10.900;2022-12-29T02:29:19;98096.84;;;11.27;56.39
21433;BME280;18592;49.708;10.900;2022-12-29T02:31:39;98097.91;;;11.26;56.52
21433;BME280;18592;49.708;10.900;2022-12-29T02:36:00;98095.75;;;11.28;56.47
21433;BME280;18592;49.708;10.900;2022-12-29T02:40:26;98105.88;;;11.32;56.38
21433;BME280;18592;49.708;10.900;2022-12-29T02:42:40;98096.84;;;11.32;56.36
21433;BME280;18592;49.708;10.900;2022-12-29T02:45:06;98096.56;;;11.33;56.40
21433;BME280;18592;49.708;10.900;2022-12-29T02:47:39;98090.59;;;11.36;56.49
21433;BME280;18592;49.708;10.900;2022-12-29T02:49:55;98078.84;;;11.36;56.37
21433;BME280;18592;49.708;10.900;2022-12-29T02:52:02;98085.97;;;11.37;56.36
21433;BME280;18592;49.708;10.900;2022-12-29T02:54:08;98079.16;;;11.39;56.25
21433;BME280;18592;49.708;10.900;2022-12-29T02:56:28;98072.63;;;11.40;56.29
21433;BME280;18592;49.708;10.900;2022-12-29T02:58:30;98077.78;;;11.42;56.21
21433;BME280;18592;49.708;10.900;2022-12-29T03:00:36;98071.50;;;11.41;56.19
21433;BME280;18592;49.708;10.900;2022-12-29T03:09:41;98062.78;;;11.44;56.26
21433;BME280;18592;49.708;10.900;2022-12-29T03:12:07;98065.50;;;11.44;56.39
21433;BME280;18592;49.708;10.900;2022-12-29T03:17:00;98071.81;;;11.45;56.21
21433;BME280;18592;49.708;10.900;2022-12-29T03:19:07;98060.59;;;11.46;56.59
21433;BME280;18592;49.708;10.900;2022-12-29T03:21:17;98058.69;;;11.47;56.15
21433;BME280;18592;49.708;10.900;2022-12-29T03:23:28;98057.06;;;11.51;56.23
21433;BME280;18592;49.708;10.900;2022-12-29T03:25:34;98066.34;;;11.50;56.16
21433;BME280;18592;49.708;10.900;2022-12-29T03:27:45;98060.38;;;11.53;56.44
21433;BME280;18592;49.708;10.900;2022-12-29T03:29:52;98056.28;;;11.56;56.15
21433;BME280;18592;49.708;10.900;2022-12-29T03:31:59;98059.00;;;11.56;56.20
21433;BME280;18592;49.708;10.900;2022-12-29T03:34:05;98055.16;;;11.57;56.34
21433;BME280;18592;49.708;10.900;2022-12-29T03:36:17;98044.78;;;11.59;56.11
21433;BME280;18592;49.708;10.900;2022-12-29T03:38:35;98047.28;;;11.60;56.28
21433;BME280;18592;49.708;10.900;2022-12-29T03:40:43;98044.78;;;11.59;56.00
21433;BME280;18592;49.708;10.900;2022-12-29T03:42:46;98051.09;;;11.59;56.13
21433;BME280;18592;49.708;10.900;2022-12-29T03:44:53;98059.28;;;11.59;56.07
21433;BME280;18592;49.708;10.900;2022-12-29T03:46:56;98060.94;;;11.60;56.22
21433;BME280;18592;49.708;10.900;2022-12-29T03:48:58;98054.94;;;11.63;56.22
21433;BME280;18592;49.708;10.900;2022-12-29T03:51:00;98053.81;;;11.64;56.19
21433;BME280;18592;49.708;10.900;2022-12-29T03:53:04;98063.94;;;11.64;56.03
21433;BME280;18592;49.708;10.900;2022-12-29T03:55:06;98065.31;;;11.66;56.00
21433;BME280;18592;49.708;10.900;2022-12-29T03:57:09;98061.75;;;11.66;56.14
21433;BME280;18592;49.708;10.900;2022-12-29T03:59:22;98072.41;;;11.67;56.14
21433;BME280;18592;49.708;10.900;2022-12-29T04:01:24;98062.06;;;11.69;56.12
21433;BME280;18592;49.708;10.900;2022-12-29T04:03:26;98062.06;;;11.69;56.11
21433;BME280;18592;49.708;10.900;2022-12-29T04:05:28;98064.78;;;11.69;56.11
21433;BME280;18592;49.708;10.900;2022-12-29T04:07:30;98063.72;;;11.70;56.11
21433;BME280;18592;49.708;10.900;2022-12-29T04:09:36;98064.53;;;11.71;55.97
21433;BME280;18592;49.708;10.900;2022-12-29T04:11:38;98072.44;;;11.72;55.97
21433;BME280;18592;49.708;10.900;2022-12-29T04:13:55;98065.91;;;11.73;55.86
21433;BME280;18592;49.708;10.900;2022-12-29T04:19:47;98073.81;;;11.75;55.99
21433;BME280;18592;49.708;10.900;2022-12-29T04:21:49;98075.72;;;11.74;55.98
21433;BME280;18592;49.708;10.900;2022-12-29T04:23:51;98065.09;;;11.78;56.04
21433;BME280;18592;49.708;10.900;2022-12-29T04:25:55;98070.81;;;11.76;56.03
21433;BME280;18592;49.708;10.900;2022-12-29T04:27:57;98066.72;;;11.79;56.04
21433;BME280;18592;49.708;10.900;2022-12-29T04:30:18;98070.53;;;11.78;56.18
21433;BME280;18592;49.708;10.900;2022-12-29T04:32:37;98076.84;;;11.78;56.13
21433;BME280;18592;49.708;10.900;2022-12-29T04:34:40;98072.19;;;11.79;56.09
21433;BME280;18592;49.708;10.900;2022-12-29T04:36:42;98064.00;;;11.79;56.15
21433;BME280;18592;49.708;10.900;2022-12-29T04:38:44;98066.44;;;11.80;56.13
21433;BME280;18592;49.708;10.900;2022-12-29T04:40:47;98071.38;;;11.78;56.18
21433;BME280;18592;49.708;10.900;2022-12-29T04:42:50;98068.63;;;11.78;56.09
21433;BME280;18592;49.708;10.900;2022-12-29T04:44:54;98061.28;;;11.79;55.94
21433;BME280;18592;49.708;10.900;2022-12-29T04:47:24;98063.44;;;11.77;55.93
21433;BME280;18592;49.708;10.900;2022-12-29T04:49:35;98063.44;;;11.77;56.11
21433;BME280;18592;49.708;10.900;2022-12-29T04:51:56;98057.19;;;11.76;56.03
21433;BME280;18592;49.708;10.900;2022-12-29T04:53:58;98059.63;;;11.78;55.90
21433;BME280;18592;49.708;10.900;2022-12-29T04:56:02;98066.16;;;11.77;56.33
21433;BME280;18592;49.708;10.900;2022-12-29T04:58:03;98074.34;;;11.77;55.72
21433;BME280;18592;49.708;10.900;2022-12-29T05:00:07;98070.81;;;11.76;55.84
21433;BME280;18592;49.708;10.900;2022-12-29T05:02:10;98074.34;;;11.77;56.07
21433;BME280;18592;49.708;10.900;2022-12-29T05:04:13;98069.16;;;11.75;55.94
21433;BME280;18592;49.708;10.900;2022-12-29T05:06:16;98073.56;;;11.76;55.94
21433;BME280;18592;49.708;10.900;2022-12-29T05:08:19;98075.19;;;11.77;55.99
21433;BME280;18592;49.708;10.900;2022-12-29T05:10:28;98080.38;;;11.79;55.89
21433;BME280;18592;49.708;10.900;2022-12-29T05:12:35;98075.72;;;11.79;56.01
21433;BME280;18592;49.708;10.900;2022-12-29T05:14:37;98071.63;;;11.77;55.68
21433;BME280;18592;49.708;10.900;2022-12-29T05:16:38;98069.19;;;11.80;56.04
21433;BME280;18592;49.708;10.900;2022-12-29T05:18:40;98059.63;;;11.78;55.73
21433;BME280;18592;49.708;10.900;2022-12-29T05:20:42;98062.06;;;11.79;55.95
21433;BME280;18592;49.708;10.900;2022-12-29T05:22:44;98055.25;;;11.82;55.90
21433;BME280;18592;49.708;10.900;2022-12-29T05:24:49;98046.50;;;11.80;55.67
21433;BME280;18592;49.708;10.900;2022-12-29T05:26:51;98040.22;;;11.79;56.02
21433;BME280;18592;49.708;10.900;2022-12-29T05:29:11;98033.97;;;11.79;55.96
21433;BME280;18592;49.708;10.900;2022-12-29T05:31:13;98036.94;;;11.77;55.95
21433;BME280;18592;49.708;10.900;2022-12-29T05:33:15;98031.50;;;11.77;55.96
21433;BME280;18592;49.708;10.900;2022-12-29T05:35:18;98038.59;;;11.78;55.72
21433;BME280;18592;49.708;10.900;2022-12-29T05:37:20;98039.69;;;11.77;55.86
21433;BME280;18592;49.708;10.900;2022-12-29T05:39:21;98034.22;;;11.72;55.72
21433;BME280;18592;49.708;10.900;2022-12-29T05:41:29;98044.31;;;11.72;55.99
21433;BME280;18592;49.708;10.900;2022-12-29T05:43:58;98039.13;;;11.70;55.78
21433;BME280;18592;49.708;10.900;2022-12-29T05:46:05;98041.88;;;11.70;55.68
21433;BME280;18592;49.708;10.900;2022-12-29T05:48:19;98037.47;;;11.69;55.70
21433;BME280;18592;49.708;10.900;2022-12-29T05:50:58;98047.28;;;11.65;55.62
21433;BME280;18592;49.708;10.900;2022-12-29T05:53:20;98047.56;;;11.64;55.55
21433;BME280;18592;49.708;10.900;2022-12-29T05:55:22;98041.53;;;11.62;55.85
21433;BME280;18592;49.708;10.900;2022-12-29T05:57:27;98033.34;;;11.57;55.66
21433;BME280;18592;49.708;10.900;2022-12-29T05:59:37;98036.59;;;11.54;56.14
21433;BME280;18592;49.708;10.900;2022-12-29T06:01:39;98030.88;;;11.50;56.10
21433;BME280;18592;49.708;10.900;2022-12-29T06:03:41;98032.22;;;11.47;55.80
21433;BME280;18592;49.708;10.900;2022-12-29T06:05:49;98027.84;;;11.46;56.15
21433;BME280;18592;49.708;10.900;2022-12-29T06:07:51;98048.06;;;11.45;56.12
21433;BME280;18592;49.708;10.900;2022-12-29T06:09:53;98042.03;;;11.43;55.84
21433;BME280;18592;49.708;10.900;2022-12-29T06:11:55;98035.78;;;11.43;56.05
21433;BME280;18592;49.708;10.900;2022-12-29T06:13:57;98038.75;;;11.41;55.96
21433;BME280;18592;49.708;10.900;2022-12-29T06:15:58;98046.69;;;11.43;55.83
21433;BME280;18592;49.708;10.900;2022-12-29T06:18:04;98040.66;;;11.41;55.63
21433;BME280;18592;49.708;10.900;2022-12-29T06:20:23;98038.22;;;11.39;55.74
21433;BME280;18592;49.708;10.900;2022-12-29T06:22:27;98037.13;;;11.40;55.91
21433;BME280;18592;49.708;10.900;2022-12-29T06:24:28;98034.13;;;11.37;55.98
21433;BME280;18592;49.708;10.900;2022-12-29T06:26:31;98043.94;;;11.38;55.67
21433;BME280;18592;49.708;10.900;2022-12-29T06:28:35;98042.84;;;11.39;55.73
21433;BME280;18592;49.708;10.900;2022-12-29T06:30:37;98036.84;;;11.37;55.73
21433;BME280;18592;49.708;10.900;2022-12-29T06:32:39;98045.31;;;11.35;55.60
21433;BME280;18592;49.708;10.900;2022-12-29T06:34:44;98046.94;;;11.36;55.12
21433;BME280;18592;49.708;10.900;2022-12-29T06:36:46;98048.03;;;11.35;55.76
21433;BME280;18592;49.708;10.900;2022-12-29T06:38:48;98045.31;;;11.35;55.68
21433;BME280;18592;49.708;10.900;2022-12-29T06:41:10;98042.00;;;11.33;55.47
21433;BME280;18592;49.708;10.900;2022-12-29T06:43:47;98052.38;;;11.31;55.47
21433;BME280;18592;49.708;10.900;2022-12-29T06:46:02;98037.91;;;11.31;55.32
21433;BME280;18592;49.708;10.900;2022-12-29T06:48:04;98049.94;;;11.30;55.52
21433;BME280;18592;49.708;10.900;2022-12-29T06:50:06;98042.56;;;11.30;55.37
21433;BME280;18592;49.708;10.900;2022-12-29T06:52:09;98040.91;;;11.29;55.55
21433;BME280;18592;49.708;10.900;2022-12-29T06:54:13;98047.19;;;11.30;55.34
21433;BME280;18592;49.708;10.900;2022-12-29T06:56:15;98040.63;;;11.31;55.25
21433;BME280;18592;49.708;10.900;2022-12-29T06:58:19;98040.09;;;11.29;55.41
21433;BME280;18592;49.708;10.900;2022-12-29T07:00:24;98043.09;;;11.27;55.35
21433;BME280;18592;49.708;10.900;2022-12-29T07:02:26;98042.28;;;11.27;55.49
21433;BME280;18592;49.708;10.900;2022-12-29T07:04:28;98051.00;;;11.29;55.43
21433;BME280;18592;49.708;10.900;2022-12-29T07:06:35;98050.44;;;11.27;55.44
21433;BME280;18592;49.708;10.900;2022-12-29T07:08:36;98054.00;;;11.27;55.26
21433;BME280;18592;49.708;10.900;2022-12-29T07:10:38;98053.47;;;11.25;55.48
21433;BME280;18592;49.708;10.900;2022-12-29T07:12:40;98049.09;;;11.24;55.47
21433;BME280;18592;49.708;10.900;2022-12-29T07:14:41;98044.44;;;11.25;55.49
21433;BME280;18592;49.708;10.900;2022-12-29T07:16:45;98058.91;;;11.25;55.29
21433;BME280;18592;49.708;10.900;2022-12-29T07:18:47;98055.09;;;11.26;55.51
21433;BME280;18592;49.708;10.900;2022-12-29T07:20:48;98056.97;;;11.26;55.22
21433;BME280;18592;49.708;10.900;2022-12-29T07:22:50;98064.91;;;11.27;55.49
21433;BME280;18592;49.708;10.900;2022-12-29T07:24:52;98064.63;;;11.29;55.37
21433;BME280;18592;49.708;10.900;2022-12-29T07:26:54;98058.09;;;11.30;55.12
21433;BME280;18592;49.708;10.900;2022-12-29T07:28:56;98054.28;;;11.31;55.07
21433;BME280;18592;49.708;10.900;2022-12-29T07:30:58;98048.03;;;11.30;55.11
21433;BME280;18592;49.708;10.900;2022-12-29T07:33:03;98055.94;;;11.32;55.38
21433;BME280;18592;49.708;10.900;2022-12-29T07:35:05;98052.91;;;11.33;55.35
21433;BME280;18592;49.708;10.900;2022-12-29T07:37:06;98054.28;;;11.36;55.35
21433;BME280;18592;49.708;10.900;2022-12-29T07:39:11;98054.28;;;11.36;55.04
21433;BME280;18592;49.708;10.900;2022-12-29T07:41:13;98059.50;;;11.37;55.11
21433;BME280;18592;49.708;10.900;2022-12-29T07:43:14;98056.50;;;11.39;55.25
21433;BME280;18592;49.708;10.900;2022-12-29T07:45:27;98054.59;;;11.39;55.24
21433;BME280;18592;49.708;10.900;2022-12-29T07:47:48;98052.41;;;11.41;54.98
21433;BME280;18592;49.708;10.900;2022-12-29T07:49:50;98060.06;;;11.44;55.27
21433;BME280;18592;49.708;10.900;2022-12-29T07:51:59;98048.88;;;11.46;55.26
21433;BME280;18592;49.708;10.900;2022-12-29T07:54:00;98051.34;;;11.47;55.18
21433;BME280;18592;49.708;10.900;2022-12-29T07:56:02;98053.78;;;11.49;55.16
21433;BME280;18592;49.708;10.900;2022-12-29T07:58:07;98048.31;;;11.49;55.16
21433;BME280;18592;49.708;10.900;2022-12-29T08:00:09;98057.88;;;11.52;55.06
21433;BME280;18592;49.708;10.900;2022-12-29T08:02:14;98056.81;;;11.53;55.07
21433;BME280;18592;49.708;10.900;2022-12-29T08:04:16;98061.16;;;11.54;55.16
21433;BME280;18592;49.708;10.900;2022-12-29T08:06:17;98050.00;;;11.55;54.86
21433;BME280;18592;49.708;10.900;2022-12-29T08:08:23;98054.09;;;11.58;55.37
21433;BME280;18592;49.708;10.900;2022-12-29T08:10:24;98060.38;;;11.58;55.17
21433;BME280;18592;49.708;10.900;2022-12-29T08:12:26;98060.94;;;11.60;55.04
21433;BME280;18592;49.708;10.900;2022-12-29T08:14:28;98060.63;;;11.62;55.17
21433;BME280;18592;49.708;10.900;2022-12-29T08:16:30;98069.13;;;11.65;55.22
21433;BME280;18592;49.708;10.900;2022-12-29T08:18:31;98073.50;;;11.66;55.21
21433;BME280;18592;49.708;10.900;2022-12-29T08:20:33;98070.50;;;11.68;54.95
21433;BME280;18592;49.708;10.900;2022-12-29T08:22:35;98071.63;;;11.72;54.67
21433;BME280;18592;49.708;10.900;2022-12-29T08:24:37;98072.97;;;11.74;54.94
21433;BME280;18592;49.708;10.900;2022-12-29T08:26:38;98066.44;;;11.75;55.17
21433;BME280;18592;49.708;10.900;2022-12-29T08:28:42;98057.72;;;11.78;55.08
21433;BME280;18592;49.708;10.900;2022-12-29T08:30:44;98056.59;;;11.79;55.02
21433;BME280;18592;49.708;10.900;2022-12-29T08:32:45;98055.53;;;11.80;55.00
21433;BME280;18592;49.708;10.900;2022-12-29T08:34:47;98056.06;;;11.82;54.91
21433;BME280;18592;49.708;10.900;2022-12-29T08:36:49;98053.09;;;11.84;54.75
21433;BME280;18592;49.708;10.900;2022-12-29T08:38:50;98041.59;;;11.87;54.80
21433;BME280;18592;49.708;10.900;2022-12-29T08:40:53;98041.34;;;11.88;54.70
21433;BME280;18592;49.708;10.900;2022-12-29T08:42:54;98043.78;;;11.90;54.65
21433;BME280;18592;49.708;10.900;2022-12-29T08:44:57;98057.72;;;11.93;54.56
21433;BME280;18592;49.708;10.900;2022-12-29T08:47:03;98047.88;;;11.97;54.56
21433;BME280;18592;49.708;10.900;2022-12-29T08:49:05;98055.84;;;11.99;54.66
21433;BME280;18592;49.708;10.900;2022-12-29T08:51:07;98059.34;;;11.99;54.60
21433;BME280;18592;49.708;10.900;2022-12-29T08:53:09;98059.34;;;12.04;54.44
21433;BME280;18592;49.708;10.900;2022-12-29T08:55:11;98054.47;;;12.06;54.45
21433;BME280;18592;49.708;10.900;2022-12-29T08:57:15;98065.13;;;12.08;54.48
21433;BME280;18592;49.708;10.900;2022-12-29T08:59:33;98059.38;;;12.09;54.23
21433;BME280;18592;49.708;10.900;2022-12-29T09:01:34;98056.09;;;12.13;54.44
21433;BME280;18592;49.708;10.900;2022-12-29T09:03:38;98065.66;;;12.15;54.43
21433;BME280;18592;49.708;10.900;2022-12-29T09:05:59;98068.66;;;12.19;54.41
21433;BME280;18592;49.708;10.900;2022-12-29T09:08:03;98062.66;;;12.22;54.44
21433;BME280;18592;49.708;10.900;2022-12-29T09:10:06;98074.13;;;12.24;54.37
21433;BME280;18592;49.708;10.900;2022-12-29T09:12:23;98055.56;;;12.26;54.50
21433;BME280;18592;49.708;10.900;2022-12-29T09:14:36;98058.28;;;12.31;54.47
21433;BME280;18592;49.708;10.900;2022-12-29T09:16:41;98049.53;;;12.34;54.35
21433;BME280;18592;49.708;10.900;2022-12-29T09:19:02;98053.34;;;12.38;54.39
21433;BME280;18592;49.708;10.900;2022-12-29T09:21:09;98058.28;;;12.41;54.28
21433;BME280;18592;49.708;10.900;2022-12-29T09:23:11;98057.97;;;12.42;54.35
21433;BME280;18592;49.708;10.900;2022-12-29T09:25:14;98062.91;;;12.45;54.34
21433;BME280;18592;49.708;10.900;2022-12-29T09:27:15;98065.91;;;12.49;54.50
21433;BME280;18592;49.708;10.900;2022-12-29T09:29:17;98065.91;;;12.54;54.34
21433;BME280;18592;49.708;10.900;2022-12-29T09:31:21;98069.47;;;12.54;54.37
21433;BME280;18592;49.708;10.900;2022-12-29T09:33:25;98072.19;;;12.59;54.73
21433;BME280;18592;49.708;10.900;2022-12-29T09:35:27;98072.44;;;12.63;54.58
21433;BME280;18592;49.708;10.900;2022-12-29T09:37:29;98065.34;;;12.67;54.58
21433;BME280;18592;49.708;10.900;2022-12-29T09:39:31;98063.16;;;12.69;54.26
21433;BME280;18592;49.708;10.900;2022-12-29T09:41:39;98072.72;;;12.71;54.42
21433;BME280;18592;49.708;10.900;2022-12-29T09:44:02;98069.16;;;12.76;54.60
21433;BME280;18592;49.708;10.900;2022-12-29T09:46:17;98062.31;;;12.79;54.37
21433;BME280;18592;49.708;10.900;2022-12-29T09:48:41;98066.69;;;12.80;54.43
21433;BME280;18592;49.708;10.900;2022-12-29T09:50:53;98058.47;;;12.85;54.64
21433;BME280;18592;49.708;10.900;2022-12-29T09:53:05;98070.22;;;12.90;54.59
21433;BME280;18592;49.708;10.900;2022-12-29T09:55:15;98052.44;;;12.93;54.22
21433;BME280;18592;49.708;10.900;2022-12-29T09:57:24;98062.53;;;12.97;54.50
21433;BME280;18592;49.708;10.900;2022-12-29T09:59:55;98066.34;;;13.01;54.46
21433;BME280;18592;49.708;10.900;2022-12-29T10:02:10;98063.91;;;13.00;54.34
21433;BME280;18592;49.708;10.900;2022-12-29T10:04:18;98066.88;;;13.03;54.48
21433;BME280;18592;49.708;10.900;2022-12-29T10:08:37;98070.75;;;13.07;54.29
21433;BME280;18592;49.708;10.900;2022-12-29T10:13:30;98067.47;;;13.10;54.01
21433;BME280;18592;49.708;10.900;2022-12-29T10:23:40;98047.16;;;13.16;54.32
21433;BME280;18592;49.708;10.900;2022-12-29T10:25:45;98064.13;;;13.18;54.40
21433;BME280;18592;49.708;10.900;2022-12-29T10:27:50;98059.22;;;13.20;54.35
21433;BME280;18592;49.708;10.900;2022-12-29T10:29:55;98038.38;;;13.24;54.45
21433;BME280;18592;49.708;10.900;2022-12-29T10:31:59;98053.41;;;13.27;54.53
21433;BME280;18592;49.708;10.900;2022-12-29T10:34:05;98044.66;;;13.30;54.10
21433;BME280;18592;49.708;10.900;2022-12-29T10:36:20;98046.28;;;13.31;54.45
21433;BME280;18592;49.708;10.900;2022-12-29T10:38:35;98047.09;;;13.31;53.92
21433;BME280;18592;49.708;10.900;2022-12-29T10:40:48;98036.97;;;13.32;54.08
21433;BME280;18592;49.708;10.900;2022-12-29T10:42:54;98044.34;;;13.36;54.35
21433;BME280;18592;49.708;10.900;2022-12-29T10:44:56;98042.13;;;13.38;54.19
21433;BME280;18592;49.708;10.900;2022-12-29T10:47:04;98048.16;;;13.41;54.19
21433;BME280;18592;49.708;10.900;2022-12-29T10:49:14;98031.16;;;13.44;54.38
21433;BME280;18592;49.708;10.900;2022-12-29T10:51:29;98038.81;;;13.47;54.39
21433;BME280;18592;49.708;10.900;2022-12-29T10:53:38;98051.94;;;13.50;54.07
21433;BME280;18592;49.708;10.900;2022-12-29T10:55:44;98036.03;;;13.52;54.33
21433;BME280;18592;49.708;10.900;2022-12-29T10:57:47;98040.13;;;13.54;54.33
21433;BME280;18592;49.708;10.900;2022-12-29T10:59:49;98032.75;;;13.55;54.48
21433;BME280;18592;49.708;10.900;2022-12-29T11:04:33;98037.66;;;13.58;54.51
21433;BME280;18592;49.708;10.900;2022-12-29T11:06:37;98039.28;;;13.59;54.63
21433;BME280;18592;49.708;10.900;2022-12-29T11:11:09;98030.75;;;13.65;54.46
21433;BME280;18592;49.708;10.900;2022-12-29T11:13:14;98029.38;;;13.68;54.66
21433;BME280;18592;49.708;10.900;2022-12-29T11:15:19;98021.69;;;13.70;54.63
21433;BME280;18592;49.708;10.900;2022-12-29T11:17:30;98030.72;;;13.70;54.58
21433;BME280;18592;49.708;10.900;2022-12-29T11:24:21;98043.31;;;13.71;54.74
21433;BME280;18592;49.708;10.900;2022-12-29T11:27:08;98035.66;;;13.73;54.61
21433;BME280;18592;49.708;10.900;2022-12-29T11:31:31;98037.00;;;13.76;54.87
21433;BME280;18592;49.708;10.900;2022-12-29T11:33:44;98034.25;;;13.76;54.76
21433;BME280;18592;49.708;10.900;2022-12-29T11:35:49;98048.19;;;13.79;54.86
21433;BME280;18592;49.708;10.900;2022-12-29T11:37:57;98051.75;;;13.80;54.73
21433;BME280;18592;49.708;10.900;2022-12-29T11:40:06;98045.72;;;13.83;54.62
21433;BME280;18592;49.708;10.900;2022-12-29T11:42:17;98044.59;;;13.84;54.66
21433;BME280;18592;49.708;10.900;2022-12-29T11:44:20;98046.25;;;13.85;54.53
21433;BME280;18592;49.708;10.900;2022-12-29T11:46:32;98040.75;;;13.85;54.57
21433;BME280;18592;49.708;10.900;2022-12-29T11:48:39;98046.75;;;13.87;54.47
21433;BME280;18592;49.708;10.900;2022-12-29T11:50:58;98043.50;;;13.85;54.45
21433;BME280;18592;49.708;10.900;2022-12-29T11:53:14;98037.19;;;13.84;54.39